createdAt,value
2023-11-15T00:01:07.072Z,100784.75
2023-11-15T00:03:33.832Z,100790.72
2023-11-15T00:06:00.689Z,100800.16
2023-11-15T00:08:27.350Z,100783.91
2023-11-15T00:10:53.928Z,100791.53
2023-11-15T00:13:20.414Z,100789.84
2023-11-15T00:15:47.013Z,100794.16
2023-11-15T00:18:14.937Z,100796.72
2023-11-15T00:20:41.980Z,100798.47
2023-11-15T00:23:10.090Z,100843.75
2023-11-15T00:25:36.725Z,100860.84
2023-11-15T00:28:04.590Z,100840.47
2023-11-15T00:30:31.150Z,100838.59
2023-11-15T00:32:57.709Z,100839.97
2023-11-15T00:35:24.515Z,100845.41
2023-11-15T00:37:51.018Z,100837.88
2023-11-15T00:40:17.590Z,100849.06
2023-11-15T00:42:45.254Z,100858.38
2023-11-15T00:45:13.318Z,100839.69
2023-11-15T00:47:40.573Z,100848.22
2023-11-15T00:50:08.264Z,100851.59
2023-11-15T00:52:34.920Z,100846.47
2023-11-15T00:55:01.437Z,100854.97
2023-11-15T00:57:28.786Z,100864.34
2023-11-15T00:59:55.575Z,100877.16
2023-11-15T01:02:22.805Z,100866.03
2023-11-15T01:04:51.736Z,100870.25
2023-11-15T01:07:19.252Z,100879.63
2023-11-15T01:09:45.733Z,100877.06
2023-11-15T01:12:12.663Z,100883.03
2023-11-15T01:14:39.143Z,100886.41
2023-11-15T01:17:06.103Z,100894.00
2023-11-15T01:19:32.684Z,100891.41
2023-11-15T01:21:59.344Z,100892.19
2023-11-15T01:24:26.745Z,100900.72
2023-11-15T01:26:53.914Z,100911.81
2023-11-15T01:29:20.527Z,100909.25
2023-11-15T01:31:47.023Z,100908.38
2023-11-15T01:34:15.830Z,100904.94
2023-11-15T01:36:42.314Z,100913.50
2023-11-15T01:39:17.029Z,100912.69
2023-11-15T01:41:50.883Z,100925.53
2023-11-15T01:44:19.307Z,100928.19
2023-11-15T01:46:49.306Z,100931.59
2023-11-15T01:49:21.483Z,100934.19
2023-11-15T01:51:50.114Z,100932.44
2023-11-15T01:54:19.694Z,100941.81
2023-11-15T01:56:46.285Z,100943.53
2023-11-15T01:59:14.544Z,100945.22
2023-11-15T02:01:41.849Z,100952.84
2023-11-15T02:04:09.359Z,100954.53
2023-11-15T02:06:38.134Z,100947.69
2023-11-15T02:09:08.358Z,100952.81
2023-11-15T02:11:34.930Z,100957.06
2023-11-15T02:14:01.412Z,100968.16
2023-11-15T02:16:28.448Z,100969.84
2023-11-15T02:18:54.900Z,100975.78
2023-11-15T02:21:21.320Z,100977.47
2023-11-15T02:23:48.080Z,100980.09
2023-11-15T02:26:14.721Z,100977.44
2023-11-15T02:28:41.140Z,100973.13
2023-11-15T02:31:10.585Z,100972.25
2023-11-15T02:33:37.338Z,100981.66
2023-11-15T02:36:04.428Z,100979.91
2023-11-15T02:38:30.813Z,100978.22
2023-11-15T02:40:57.273Z,100980.75
2023-11-15T02:43:23.797Z,100977.34
2023-11-15T02:45:50.379Z,100974.66
2023-11-15T02:48:16.907Z,100986.56
2023-11-15T02:50:43.703Z,100981.34
2023-11-15T02:53:10.266Z,100976.16
2023-11-15T02:55:36.746Z,100970.16
2023-11-15T02:58:04.471Z,100972.69
2023-11-15T03:00:31.754Z,100975.19
2023-11-15T03:02:58.657Z,100984.50
2023-11-15T03:05:25.506Z,100981.75
2023-11-15T03:07:53.467Z,100977.41
2023-11-15T03:10:19.955Z,100974.94
2023-11-15T03:12:47.096Z,100982.56
2023-11-15T03:15:14.255Z,100977.31
2023-11-15T03:17:41.516Z,100998.53
2023-11-15T03:20:10.192Z,100995.09
2023-11-15T03:22:36.814Z,100998.41
2023-11-15T03:25:03.448Z,101007.69
2023-11-15T03:27:29.876Z,101011.91
2023-11-15T03:29:56.458Z,101021.31
2023-11-15T03:32:24.087Z,101022.94
2023-11-15T03:34:51.073Z,101024.56
2023-11-15T03:37:17.507Z,101024.59
2023-11-15T03:39:45.659Z,101016.91
2023-11-15T03:42:13.204Z,101025.44
2023-11-15T03:44:39.789Z,101032.25
2023-11-15T03:47:06.367Z,101027.25
2023-11-15T03:49:32.918Z,101027.94
2023-11-15T03:51:59.414Z,101025.38
2023-11-15T03:54:25.868Z,101031.38
2023-11-15T03:56:52.299Z,101030.47
2023-11-15T03:59:20.246Z,101034.72
2023-11-15T04:01:55.105Z,101039.84
2023-11-15T04:04:25.206Z,101044.19
2023-11-15T04:06:52.264Z,101043.34
2023-11-15T04:09:18.783Z,101047.69
2023-11-15T04:11:45.677Z,101050.22
2023-11-15T04:14:13.251Z,101052.72
2023-11-15T04:16:39.858Z,101057.06
2023-11-15T04:19:06.435Z,101054.41
2023-11-15T04:21:33.002Z,101050.22
2023-11-15T04:24:00.066Z,101059.59
2023-11-15T04:26:27.059Z,101069.84
2023-11-15T04:28:54.310Z,101068.13
2023-11-15T04:31:22.142Z,101080.06
2023-11-15T04:33:49.908Z,101075.78
2023-11-15T04:36:20.397Z,101079.22
2023-11-15T04:38:48.663Z,101078.34
2023-11-15T04:41:15.877Z,101082.63
2023-11-15T04:43:42.339Z,101093.72
2023-11-15T04:46:09.568Z,101095.41
2023-11-15T04:48:36.628Z,101099.69
2023-11-15T04:51:03.778Z,101103.13
2023-11-15T04:53:30.551Z,101096.28
2023-11-15T04:55:57.172Z,101100.59
2023-11-15T04:58:23.585Z,101098.03
2023-11-15T05:00:50.046Z,101102.28
2023-11-15T05:03:16.701Z,101101.41
2023-11-15T05:05:46.708Z,101098.84
2023-11-15T05:08:13.492Z,101108.28
2023-11-15T05:10:40.034Z,101113.38
2023-11-15T05:13:06.543Z,101113.41
2023-11-15T05:15:33.440Z,101111.72
2023-11-15T05:18:01.210Z,101111.78
2023-11-15T05:20:27.966Z,101112.56
2023-11-15T05:22:57.498Z,101112.53
2023-11-15T05:25:24.665Z,101115.09
2023-11-15T05:27:51.219Z,101117.66
2023-11-15T05:30:17.798Z,101127.91
2023-11-15T05:32:45.065Z,101121.81
2023-11-15T05:35:11.745Z,101117.47
2023-11-15T05:37:39.430Z,101118.34
2023-11-15T05:40:07.508Z,101119.34
2023-11-15T05:42:34.504Z,101120.22
2023-11-15T05:45:01.261Z,101126.34
2023-11-15T05:47:28.722Z,101128.03
2023-11-15T05:49:55.551Z,101121.25
2023-11-15T05:52:22.818Z,101129.72
2023-11-15T05:54:49.301Z,101126.34
2023-11-15T05:57:15.870Z,101128.03
2023-11-15T05:59:42.565Z,101133.22
2023-11-15T06:02:09.280Z,101135.78
2023-11-15T06:04:36.183Z,101136.66
2023-11-15T06:07:02.746Z,101143.47
2023-11-15T06:09:29.915Z,101135.88
2023-11-15T06:11:56.471Z,101135.91
2023-11-15T06:14:22.956Z,101129.94
2023-11-15T06:16:49.543Z,101135.91
2023-11-15T06:19:15.949Z,101140.13
2023-11-15T06:21:43.640Z,101143.53
2023-11-15T06:24:10.369Z,101145.22
2023-11-15T06:26:38.387Z,101150.34
2023-11-15T06:29:06.435Z,101150.34
2023-11-15T06:31:34.151Z,101146.94
2023-11-15T06:34:00.812Z,101158.97
2023-11-15T06:36:27.357Z,101162.44
2023-11-15T06:38:53.814Z,101163.28
2023-11-15T06:41:20.298Z,101165.91
2023-11-15T06:43:46.785Z,101171.91
2023-11-15T06:46:18.652Z,101181.38
2023-11-15T06:48:45.454Z,101184.09
2023-11-15T06:51:12.081Z,101183.38
2023-11-15T06:53:39.440Z,101185.06
2023-11-15T06:56:08.648Z,101189.38
2023-11-15T06:58:37.572Z,101197.03
2023-11-15T07:01:08.012Z,101196.94
2023-11-15T07:03:34.576Z,101192.69
2023-11-15T07:06:01.187Z,101205.50
2023-11-15T07:08:27.705Z,101204.63
2023-11-15T07:10:56.201Z,101208.13
2023-11-15T07:13:23.269Z,101209.06
2023-11-15T07:15:51.264Z,101220.19
2023-11-15T07:18:18.460Z,101224.47
2023-11-15T07:20:45.838Z,101224.47
2023-11-15T07:23:13.080Z,101220.28
2023-11-15T07:25:39.771Z,101225.44
2023-11-15T07:28:09.382Z,101226.38
2023-11-15T07:30:35.939Z,101230.78
2023-11-15T07:33:02.534Z,101235.06
2023-11-15T07:35:29.164Z,101240.16
2023-11-15T07:37:55.782Z,101239.28
2023-11-15T07:40:23.746Z,101241.81
2023-11-15T07:42:50.887Z,101255.47
2023-11-15T07:45:20.298Z,101244.34
2023-11-15T07:47:49.730Z,101248.50
2023-11-15T07:50:17.161Z,101249.38
2023-11-15T07:52:44.444Z,101257.03
2023-11-15T07:55:11.759Z,101257.91
2023-11-15T07:57:38.350Z,101261.25
2023-11-15T08:00:06.004Z,101268.03
2023-11-15T08:02:32.674Z,101273.88
2023-11-15T08:04:59.419Z,101269.44
2023-11-15T08:07:25.843Z,101277.91
2023-11-15T08:09:52.299Z,101279.56
2023-11-15T08:12:18.748Z,101283.78
2023-11-15T08:14:45.270Z,101292.34
2023-11-15T08:17:12.674Z,101291.69
2023-11-15T08:19:39.269Z,101295.91
2023-11-15T08:22:06.890Z,101303.34
2023-11-15T08:24:35.613Z,101298.00
2023-11-15T08:27:02.222Z,101305.69
2023-11-15T08:29:28.719Z,101300.56
2023-11-15T08:31:55.498Z,101309.56
2023-11-15T08:34:24.052Z,101304.19
2023-11-15T08:36:51.680Z,101305.00
2023-11-15T08:39:18.381Z,101312.81
2023-11-15T08:41:47.507Z,101311.09
2023-11-15T08:44:14.582Z,101316.91
2023-11-15T08:46:43.612Z,101313.81
2023-11-15T08:49:17.242Z,101308.19
2023-11-15T08:51:46.316Z,101319.28
2023-11-15T08:54:13.260Z,101313.31
2023-11-15T08:56:42.441Z,101317.28
2023-11-15T08:59:15.448Z,101316.72
2023-11-15T09:01:42.957Z,101311.56
2023-11-15T09:04:09.834Z,101324.53
2023-11-15T09:06:36.381Z,101322.88
2023-11-15T09:09:05.324Z,101320.41
2023-11-15T09:11:32.823Z,101320.34
2023-11-15T09:14:00.004Z,101316.72
2023-11-15T09:16:26.919Z,101316.66
2023-11-15T09:18:56.043Z,101308.94
2023-11-15T09:21:23.750Z,101316.66
2023-11-15T09:23:50.213Z,101318.38
2023-11-15T09:26:20.157Z,101320.84
2023-11-15T09:28:48.040Z,101328.34
2023-11-15T09:31:14.919Z,101322.31
2023-11-15T09:33:41.658Z,101328.16
2023-11-15T09:36:12.377Z,101327.72
2023-11-15T09:38:40.919Z,101332.69
2023-11-15T09:41:13.113Z,101340.41
2023-11-15T09:43:45.469Z,101338.63
2023-11-15T09:46:13.953Z,101335.06
2023-11-15T09:48:53.092Z,101335.94
2023-11-15T09:51:33.546Z,101343.03
2023-11-15T09:54:12.339Z,101349.09
2023-11-15T09:56:45.690Z,101350.47
2023-11-15T09:59:12.225Z,101343.59
2023-11-15T10:01:44.806Z,101348.25
2023-11-15T10:04:28.950Z,101341.03
2023-11-15T10:07:05.160Z,101350.09
2023-11-15T10:09:39.559Z,101344.56
2023-11-15T10:12:07.448Z,101350.22
2023-11-15T10:14:38.110Z,101350.50
2023-11-15T10:17:07.417Z,101337.63
2023-11-15T10:19:35.526Z,101352.38
2023-11-15T10:22:06.552Z,101341.03
2023-11-15T10:24:35.685Z,101352.44
2023-11-15T10:27:12.417Z,101342.34
2023-11-15T10:29:40.128Z,101343.50
2023-11-15T10:32:07.658Z,101341.06
2023-11-15T10:34:36.225Z,101350.47
2023-11-15T10:37:12.825Z,101352.28
2023-11-15T10:39:45.011Z,101355.88
2023-11-15T10:42:13.671Z,101354.72
2023-11-15T10:44:42.186Z,101362.47
2023-11-15T10:47:09.327Z,101351.88
2023-11-15T10:49:51.938Z,101364.03
2023-11-15T10:52:19.226Z,101355.97
2023-11-15T10:54:45.898Z,101370.66
2023-11-15T10:57:12.733Z,101366.66
2023-11-15T10:59:42.284Z,101375.19
2023-11-15T11:02:11.000Z,101368.31
2023-11-15T11:04:40.116Z,101371.94
2023-11-15T11:07:42.743Z,101364.31
2023-11-15T11:10:24.970Z,101363.59
2023-11-15T11:12:51.443Z,101370.72
2023-11-15T11:15:21.411Z,101370.75
2023-11-15T11:17:49.838Z,101372.69
2023-11-15T11:20:30.025Z,101365.88
2023-11-15T11:23:11.618Z,101361.09
2023-11-15T11:25:41.962Z,101365.38
2023-11-15T11:28:13.325Z,101376.94
2023-11-15T11:30:39.875Z,101366.44
2023-11-15T11:33:19.889Z,101362.03
2023-11-15T11:35:48.063Z,101363.38
2023-11-15T11:38:39.596Z,101369.91
2023-11-15T11:41:06.291Z,101370.66
2023-11-15T11:43:33.813Z,101372.81
2023-11-15T11:46:14.651Z,101371.81
2023-11-15T11:48:41.413Z,101372.72
2023-11-15T11:51:09.124Z,101371.97
2023-11-15T11:53:39.867Z,101385.16
2023-11-15T11:56:08.578Z,101376.81
2023-11-15T11:58:37.735Z,101380.63
2023-11-15T12:01:06.340Z,101382.69
2023-11-15T12:03:36.658Z,101379.56
2023-11-15T12:06:09.124Z,101382.47
2023-11-15T12:08:47.563Z,101381.63
2023-11-15T12:11:18.390Z,101371.59
2023-11-15T12:13:50.249Z,101376.97
2023-11-15T12:16:25.016Z,101383.84
2023-11-15T12:18:58.982Z,101380.56
2023-11-15T12:21:26.151Z,101382.25
2023-11-15T12:23:53.507Z,101377.88
2023-11-15T12:26:20.166Z,101380.41
2023-11-15T12:28:47.492Z,101390.19
2023-11-15T12:31:15.530Z,101376.44
2023-11-15T12:33:43.995Z,101388.38
2023-11-15T12:36:12.678Z,101381.41
2023-11-15T12:38:56.628Z,101383.06
2023-11-15T12:41:23.819Z,101378.78
2023-11-15T12:44:03.816Z,101381.25
2023-11-15T12:46:30.586Z,101377.66
2023-11-15T12:48:57.159Z,101375.72
2023-11-15T12:51:23.920Z,101379.59
2023-11-15T12:53:50.561Z,101379.50
2023-11-15T12:56:18.739Z,101386.31
2023-11-15T12:58:46.164Z,101371.78
2023-11-15T13:01:18.173Z,101379.63
2023-11-15T13:03:45.835Z,101402.22
2023-11-15T13:06:17.321Z,101416.25
2023-11-15T13:08:45.895Z,101389.44
2023-11-15T13:11:14.665Z,101395.06
2023-11-15T13:13:42.823Z,101403.22
2023-11-15T13:16:10.377Z,101405.25
2023-11-15T13:18:38.354Z,101406.97
2023-11-15T13:21:07.933Z,101408.63
2023-11-15T13:23:41.349Z,101406.16
2023-11-15T13:26:11.620Z,101412.25
2023-11-15T13:28:40.607Z,101411.47
2023-11-15T13:31:11.514Z,101407.22
2023-11-15T13:33:39.731Z,101407.13
2023-11-15T13:36:08.162Z,101413.94
2023-11-15T13:38:35.299Z,101412.25
2023-11-15T13:41:08.315Z,101408.81
2023-11-15T13:43:35.444Z,101409.69
2023-11-15T13:46:01.995Z,101408.84
2023-11-15T13:48:28.582Z,101416.53
2023-11-15T13:50:55.592Z,101417.25
2023-11-15T13:53:22.043Z,101415.47
2023-11-15T13:55:49.025Z,101408.63
2023-11-15T13:58:16.504Z,101419.88
2023-11-15T14:00:42.960Z,101422.41
2023-11-15T14:03:10.580Z,101421.56
2023-11-15T14:05:41.958Z,101415.78
2023-11-15T14:08:11.914Z,101417.63
2023-11-15T14:10:40.526Z,101416.88
2023-11-15T14:13:07.602Z,101422.00
2023-11-15T14:15:35.372Z,101428.94
2023-11-15T14:18:05.066Z,101445.31
2023-11-15T14:20:32.536Z,101444.44
2023-11-15T14:22:59.607Z,101437.50
2023-11-15T14:25:32.921Z,101441.72
2023-11-15T14:28:03.178Z,101445.31
2023-11-15T14:30:30.140Z,101439.38
2023-11-15T14:32:57.520Z,101447.91
2023-11-15T14:35:26.491Z,101460.75
2023-11-15T14:37:53.817Z,101451.47
2023-11-15T14:40:24.498Z,101454.06
2023-11-15T14:42:53.342Z,101449.84
2023-11-15T14:45:20.960Z,101461.84
2023-11-15T14:47:47.949Z,101457.59
2023-11-15T14:50:16.333Z,101453.28
2023-11-15T14:53:10.021Z,101455.81
2023-11-15T14:55:36.760Z,101447.25
2023-11-15T14:58:04.567Z,101452.34
2023-11-15T15:00:31.012Z,101457.50
2023-11-15T15:03:02.340Z,101451.63
2023-11-15T15:05:29.133Z,101473.88
2023-11-15T15:07:55.977Z,101474.75
2023-11-15T15:10:22.551Z,101472.22
2023-11-15T15:12:49.398Z,101472.97
2023-11-15T15:15:19.087Z,101472.13
2023-11-15T15:17:46.943Z,101473.13
2023-11-15T15:20:17.680Z,101472.41
2023-11-15T15:22:44.315Z,101469.09
2023-11-15T15:25:12.885Z,101475.13
2023-11-15T15:27:40.123Z,101475.09
2023-11-15T15:30:10.484Z,101471.69
2023-11-15T15:32:36.929Z,101468.47
2023-11-15T15:35:03.573Z,101466.00
2023-11-15T15:37:30.036Z,101471.22
2023-11-15T15:39:57.419Z,101482.50
2023-11-15T15:42:25.448Z,101488.59
2023-11-15T15:44:53.350Z,101493.81
2023-11-15T15:47:19.903Z,101488.72
2023-11-15T15:49:46.889Z,101491.31
2023-11-15T15:52:14.531Z,101490.44
2023-11-15T15:54:44.806Z,101493.16
2023-11-15T15:57:11.595Z,101494.91
2023-11-15T15:59:43.344Z,101489.81
2023-11-15T16:02:10.436Z,101489.78
2023-11-15T16:04:42.138Z,101489.91
2023-11-15T16:07:09.092Z,101498.63
2023-11-15T16:09:35.498Z,101498.75
2023-11-15T16:12:01.894Z,101493.78
2023-11-15T16:14:28.304Z,101498.19
2023-11-15T16:16:54.732Z,101507.72
2023-11-15T16:19:21.335Z,101506.09
2023-11-15T16:21:48.118Z,101509.50
2023-11-15T16:24:14.615Z,101504.47
2023-11-15T16:26:41.208Z,101507.94
2023-11-15T16:29:07.777Z,101511.28
2023-11-15T16:31:34.364Z,101513.75
2023-11-15T16:34:00.866Z,101512.91
2023-11-15T16:36:28.447Z,101513.69
2023-11-15T16:38:54.968Z,101508.56
2023-11-15T16:41:22.170Z,101506.00
2023-11-15T16:43:48.601Z,101507.72
2023-11-15T16:46:15.209Z,101506.84
2023-11-15T16:48:44.243Z,101517.16
2023-11-15T16:51:11.566Z,101512.88
2023-11-15T16:53:38.060Z,101520.50
2023-11-15T16:56:04.861Z,101518.66
2023-11-15T16:58:33.065Z,101522.09
2023-11-15T17:00:59.541Z,101519.50
2023-11-15T17:03:26.083Z,101530.63
2023-11-15T17:05:52.858Z,101525.50
2023-11-15T17:08:19.555Z,101530.59
2023-11-15T17:10:46.549Z,101531.50
2023-11-15T17:13:13.820Z,101527.22
2023-11-15T17:15:40.244Z,101527.28
2023-11-15T17:18:06.700Z,101540.97
2023-11-15T17:20:33.278Z,101543.53
2023-11-15T17:22:59.790Z,101545.22
2023-11-15T17:25:27.153Z,101536.66
2023-11-15T17:27:54.756Z,101534.97
2023-11-15T17:30:21.730Z,101547.00
2023-11-15T17:32:48.311Z,101537.66
2023-11-15T17:35:14.887Z,101545.38
2023-11-15T17:37:44.110Z,101536.00
2023-11-15T17:40:12.255Z,101536.91
2023-11-15T17:42:38.739Z,101531.78
2023-11-15T17:45:07.862Z,101539.44
2023-11-15T17:47:34.464Z,101538.56
2023-11-15T17:50:05.010Z,101534.31
2023-11-15T17:52:31.621Z,101530.00
2023-11-15T17:54:58.064Z,101530.03
2023-11-15T17:57:24.829Z,101542.88
2023-11-15T17:59:51.251Z,101540.31
2023-11-15T18:02:17.912Z,101540.31
2023-11-15T18:04:44.342Z,101529.28
2023-11-15T18:07:10.876Z,101532.75
2023-11-15T18:09:40.428Z,101533.63
2023-11-15T18:12:07.628Z,101532.81
2023-11-15T18:14:34.392Z,101532.81
2023-11-15T18:17:00.834Z,101537.13
2023-11-15T18:19:28.401Z,101539.69
2023-11-15T18:21:55.532Z,101532.03
2023-11-15T18:24:24.211Z,101536.31
2023-11-15T18:26:51.036Z,101532.03
2023-11-15T18:29:18.122Z,101533.81
2023-11-15T18:31:44.827Z,101538.06
2023-11-15T18:34:12.416Z,101535.53
2023-11-15T18:36:41.648Z,101529.59
2023-11-15T18:39:18.426Z,101535.66
2023-11-15T18:41:48.067Z,101540.84
2023-11-15T18:44:17.024Z,101538.28
2023-11-15T18:46:44.102Z,101539.97
2023-11-15T18:49:10.595Z,101543.41
2023-11-15T18:51:37.466Z,101539.97
2023-11-15T18:54:04.631Z,101551.09
2023-11-15T18:56:31.904Z,101547.66
2023-11-15T18:59:01.385Z,101553.66
2023-11-15T19:01:27.819Z,101550.22
2023-11-15T19:03:54.652Z,101545.94
2023-11-15T19:06:22.936Z,101543.41
2023-11-15T19:08:49.760Z,101547.66
2023-11-15T19:11:16.225Z,101544.22
2023-11-15T19:13:43.798Z,101546.78
2023-11-15T19:16:10.372Z,101545.94
2023-11-15T19:18:37.062Z,101551.88
2023-11-15T19:21:05.398Z,101541.63
2023-11-15T19:23:31.978Z,101544.19
2023-11-15T19:25:58.429Z,101545.09
2023-11-15T19:28:25.315Z,101551.91
2023-11-15T19:30:51.850Z,101544.22
2023-11-15T19:33:20.687Z,101550.22
2023-11-15T19:35:49.434Z,101544.22
2023-11-15T19:38:15.878Z,101542.53
2023-11-15T19:40:42.505Z,101557.03
2023-11-15T19:43:10.583Z,101547.66
2023-11-15T19:45:37.282Z,101551.09
2023-11-15T19:48:04.377Z,101553.69
2023-11-15T19:50:31.496Z,101545.16
2023-11-15T19:52:58.000Z,101539.19
2023-11-15T19:55:30.472Z,101534.06
2023-11-15T19:57:58.834Z,101535.78
2023-11-15T20:00:25.778Z,101533.25
2023-11-15T20:02:53.550Z,101533.28
2023-11-15T20:05:22.628Z,101539.25
2023-11-15T20:07:49.072Z,101535.81
2023-11-15T20:10:15.597Z,101534.97
2023-11-15T20:12:44.194Z,101530.66
2023-11-15T20:15:11.582Z,101536.59
2023-11-15T20:17:38.337Z,101533.16
2023-11-15T20:20:05.709Z,101537.44
2023-11-15T20:22:42.022Z,101532.34
2023-11-15T20:25:15.105Z,101536.59
2023-11-15T20:27:41.545Z,101534.06
2023-11-15T20:30:10.099Z,101529.81
2023-11-15T20:32:36.615Z,101537.50
2023-11-15T20:35:04.569Z,101541.72
2023-11-15T20:37:31.755Z,101549.38
2023-11-15T20:39:58.346Z,101559.63
2023-11-15T20:42:25.105Z,101558.78
2023-11-15T20:44:51.607Z,101551.97
2023-11-15T20:47:20.111Z,101546.06
2023-11-15T20:49:47.094Z,101551.16
2023-11-15T20:52:14.611Z,101537.53
2023-11-15T20:54:41.182Z,101540.06
2023-11-15T20:57:08.903Z,101545.19
2023-11-15T20:59:37.298Z,101542.66
2023-11-15T21:02:04.502Z,101530.72
2023-11-15T21:04:31.197Z,101538.41
2023-11-15T21:06:59.763Z,101544.38
2023-11-15T21:09:26.820Z,101536.63
2023-11-15T21:11:56.193Z,101535.75
2023-11-15T21:14:22.816Z,101534.00
2023-11-15T21:16:49.352Z,101530.59
2023-11-15T21:19:15.962Z,101537.50
2023-11-15T21:21:45.961Z,101532.38
2023-11-15T21:24:12.948Z,101540.88
2023-11-15T21:26:41.205Z,101528.88
2023-11-15T21:29:11.594Z,101522.03
2023-11-15T21:31:40.730Z,101532.22
2023-11-15T21:34:08.736Z,101524.53
2023-11-15T21:36:37.740Z,101531.31
2023-11-15T21:39:10.716Z,101531.28
2023-11-15T21:41:37.449Z,101530.34
2023-11-15T21:44:04.892Z,101532.88
2023-11-15T21:46:31.456Z,101529.47
2023-11-15T21:48:58.618Z,101530.34
2023-11-15T21:51:25.632Z,101525.25
2023-11-15T21:53:54.350Z,101521.03
2023-11-15T21:56:21.898Z,101529.59
2023-11-15T21:58:48.562Z,101523.56
2023-11-15T22:01:15.730Z,101526.13
2023-11-15T22:03:42.937Z,101524.41
2023-11-15T22:06:09.891Z,101509.03
2023-11-15T22:08:36.428Z,101505.63
2023-11-15T22:11:04.623Z,101505.63
2023-11-15T22:13:31.167Z,101510.75
2023-11-15T22:15:58.344Z,101507.41
2023-11-15T22:18:24.931Z,101518.44
2023-11-15T22:20:53.245Z,101510.78
2023-11-15T22:23:19.652Z,101514.22
2023-11-15T22:25:46.063Z,101513.34
2023-11-15T22:28:12.569Z,101500.50
2023-11-15T22:30:39.084Z,101491.16
2023-11-15T22:33:05.733Z,101504.81
2023-11-15T22:35:34.744Z,101506.56
2023-11-15T22:38:01.196Z,101504.88
2023-11-15T22:40:27.592Z,101517.66
2023-11-15T22:43:03.350Z,101522.78
2023-11-15T22:45:31.368Z,101529.53
2023-11-15T22:47:58.781Z,101527.81
2023-11-15T22:50:25.529Z,101525.28
2023-11-15T22:52:52.060Z,101535.47
2023-11-15T22:55:18.989Z,101529.31
2023-11-15T22:57:45.458Z,101536.16
2023-11-15T23:00:20.850Z,101532.66
2023-11-15T23:02:50.034Z,101528.44
2023-11-15T23:05:16.764Z,101534.41
2023-11-15T23:07:43.862Z,101543.88
2023-11-15T23:10:10.315Z,101538.66
2023-11-15T23:12:37.767Z,101536.03
2023-11-15T23:15:04.550Z,101532.56
2023-11-15T23:17:33.156Z,101533.41
2023-11-15T23:19:59.663Z,101536.88
2023-11-15T23:22:26.142Z,101535.16
2023-11-15T23:24:52.802Z,101535.16
2023-11-15T23:27:19.264Z,101545.41
2023-11-15T23:29:45.677Z,101535.06
2023-11-15T23:32:12.267Z,101537.69
2023-11-15T23:34:38.758Z,101536.78
2023-11-15T23:37:05.228Z,101535.84
2023-11-15T23:39:31.873Z,101539.28
2023-11-15T23:41:58.433Z,101531.66
2023-11-15T23:44:24.940Z,101521.41
2023-11-15T23:46:52.856Z,101536.69
2023-11-15T23:49:19.620Z,101535.81
2023-11-15T23:51:46.080Z,101534.06
2023-11-15T23:54:12.774Z,101530.69
2023-11-15T23:56:43.059Z,101536.66
2023-11-15T23:59:09.833Z,101538.44
